sensor_id;sensor_type;location;lat;lon;timestamp;P1;durP1;ratioP1;P2;durP2;ratioP2
18754;SDS011;35061;47.664;9.166;2024-01-15T00:02:24;13.38;;;7.03;;
18754;SDS011;35061;47.664;9.166;2024-01-15T00:04:52;14.48;;;7.37;;
18754;SDS011;35061;47.664;9.166;2024-01-15T00:07:20;12.23;;;6.68;;
18754;SDS011;35061;47.664;9.166;2024-01-15T00:09:48;15.23;;;8.15;;
18754;SDS011;35061;47.664;9.166;2024-01-15T00:12:16;12.88;;;7.10;;
18754;SDS011;35061;47.664;9.166;2024-01-15T00:14:44;14.45;;;6.75;;
18754;SDS011;35061;47.664;9.166;2024-01-15T00:17:12;14.27;;;7.78;;
18754;SDS011;35061;47.664;9.166;2024-01-15T00:19:40;15.32;;;7.90;;
18754;SDS011;35061;47.664;9.166;2024-01-15T00:22:08;15.18;;;7.65;;
18754;SDS011;35061;47.664;9.166;2024-01-15T00:24:36;15.15;;;7.18;;
18754;SDS011;35061;47.664;9.166;2024-01-15T00:27:04;14.15;;;7.72;;
18754;SDS011;35061;47.664;9.166;2024-01-15T00:29:32;15.48;;;8.00;;
18754;SDS011;35061;47.664;9.166;2024-01-15T00:32:00;13.50;;;7.10;;
18754;SDS011;35061;47.664;9.166;2024-01-15T00:34:28;13.20;;;7.30;;
18754;SDS011;35061;47.664;9.166;2024-01-15T00:36:57;11.52;;;6.50;;
18754;SDS011;35061;47.664;9.166;2024-01-15T00:39:25;13.75;;;7.75;;
18754;SDS011;35061;47.664;9.166;2024-01-15T00:41:53;12.32;;;6.62;;
18754;SDS011;35061;47.664;9.166;2024-01-15T00:44:21;14.65;;;7.70;;
18754;SDS011;35061;47.664;9.166;2024-01-15T00:46:49;12.37;;;7.18;;
18754;SDS011;35061;47.664;9.166;2024-01-15T00:49:17;11.88;;;6.70;;
18754;SDS011;35061;47.664;9.166;2024-01-15T00:51:46;11.32;;;6.95;;
18754;SDS011;35061;47.664;9.166;2024-01-15T00:54:15;10.93;;;6.55;;
18754;SDS011;35061;47.664;9.166;2024-01-15T00:56:43;12.57;;;6.62;;
18754;SDS011;35061;47.664;9.166;2024-01-15T00:59:11;10.90;;;5.85;;
18754;SDS011;35061;47.664;9.166;2024-01-15T01:01:42;9.65;;;5.30;;
18754;SDS011;35061;47.664;9.166;2024-01-15T01:04:10;10.98;;;6.10;;
18754;SDS011;35061;47.664;9.166;2024-01-15T01:06:38;6.32;;;4.70;;
18754;SDS011;35061;47.664;9.166;2024-01-15T01:09:07;9.63;;;5.93;;
18754;SDS011;35061;47.664;9.166;2024-01-15T01:11:35;8.48;;;5.57;;
18754;SDS011;35061;47.664;9.166;2024-01-15T01:14:03;9.52;;;5.03;;
18754;SDS011;35061;47.664;9.166;2024-01-15T01:16:31;8.82;;;5.40;;
18754;SDS011;35061;47.664;9.166;2024-01-15T01:19:06;8.93;;;5.60;;
18754;SDS011;35061;47.664;9.166;2024-01-15T01:21:35;11.43;;;5.80;;
18754;SDS011;35061;47.664;9.166;2024-01-15T01:24:03;7.18;;;4.45;;
18754;SDS011;35061;47.664;9.166;2024-01-15T01:26:31;7.65;;;4.03;;
18754;SDS011;35061;47.664;9.166;2024-01-15T01:28:59;5.80;;;4.30;;
18754;SDS011;35061;47.664;9.166;2024-01-15T01:31:27;5.32;;;3.80;;
18754;SDS011;35061;47.664;9.166;2024-01-15T01:33:55;5.85;;;4.03;;
18754;SDS011;35061;47.664;9.166;2024-01-15T01:36:23;5.75;;;3.65;;
18754;SDS011;35061;47.664;9.166;2024-01-15T01:38:51;6.05;;;3.97;;
18754;SDS011;35061;47.664;9.166;2024-01-15T01:41:19;6.12;;;4.45;;
18754;SDS011;35061;47.664;9.166;2024-01-15T01:43:47;6.85;;;4.07;;
18754;SDS011;35061;47.664;9.166;2024-01-15T01:46:15;6.10;;;4.12;;
18754;SDS011;35061;47.664;9.166;2024-01-15T01:48:43;6.65;;;3.35;;
18754;SDS011;35061;47.664;9.166;2024-01-15T01:51:11;7.15;;;4.15;;
18754;SDS011;35061;47.664;9.166;2024-01-15T01:53:40;7.72;;;4.15;;
18754;SDS011;35061;47.664;9.166;2024-01-15T01:56:08;6.65;;;3.72;;
18754;SDS011;35061;47.664;9.166;2024-01-15T01:58:37;7.37;;;3.47;;
18754;SDS011;35061;47.664;9.166;2024-01-15T02:01:05;4.80;;;3.42;;
18754;SDS011;35061;47.664;9.166;2024-01-15T02:03:35;5.82;;;3.40;;
18754;SDS011;35061;47.664;9.166;2024-01-15T02:06:03;6.57;;;4.10;;
18754;SDS011;35061;47.664;9.166;2024-01-15T02:08:31;4.05;;;3.28;;
18754;SDS011;35061;47.664;9.166;2024-01-15T02:10:59;7.03;;;3.92;;
18754;SDS011;35061;47.664;9.166;2024-01-15T02:13:28;6.40;;;4.15;;
18754;SDS011;35061;47.664;9.166;2024-01-15T02:15:56;6.15;;;3.60;;
18754;SDS011;35061;47.664;9.166;2024-01-15T02:18:24;5.28;;;3.70;;
18754;SDS011;35061;47.664;9.166;2024-01-15T02:20:52;5.45;;;3.55;;
18754;SDS011;35061;47.664;9.166;2024-01-15T02:23:20;5.50;;;4.28;;
18754;SDS011;35061;47.664;9.166;2024-01-15T02:25:48;7.03;;;3.53;;
18754;SDS011;35061;47.664;9.166;2024-01-15T02:28:17;6.28;;;3.65;;
18754;SDS011;35061;47.664;9.166;2024-01-15T02:30:45;6.87;;;3.58;;
18754;SDS011;35061;47.664;9.166;2024-01-15T02:33:13;4.95;;;3.30;;
18754;SDS011;35061;47.664;9.166;2024-01-15T02:35:41;6.95;;;3.58;;
18754;SDS011;35061;47.664;9.166;2024-01-15T02:38:09;5.10;;;3.25;;
18754;SDS011;35061;47.664;9.166;2024-01-15T02:40:38;4.57;;;3.12;;
18754;SDS011;35061;47.664;9.166;2024-01-15T02:43:06;6.55;;;4.00;;
18754;SDS011;35061;47.664;9.166;2024-01-15T02:45:34;7.03;;;4.12;;
18754;SDS011;35061;47.664;9.166;2024-01-15T02:48:02;7.10;;;3.33;;
18754;SDS011;35061;47.664;9.166;2024-01-15T02:50:30;6.65;;;3.85;;
18754;SDS011;35061;47.664;9.166;2024-01-15T02:52:59;5.70;;;3.05;;
18754;SDS011;35061;47.664;9.166;2024-01-15T02:55:27;6.12;;;3.60;;
18754;SDS011;35061;47.664;9.166;2024-01-15T02:57:57;6.25;;;3.50;;
18754;SDS011;35061;47.664;9.166;2024-01-15T03:00:25;5.30;;;3.65;;
18754;SDS011;35061;47.664;9.166;2024-01-15T03:02:53;6.72;;;3.42;;
18754;SDS011;35061;47.664;9.166;2024-01-15T03:05:21;6.40;;;4.00;;
18754;SDS011;35061;47.664;9.166;2024-01-15T03:07:49;7.87;;;4.55;;
18754;SDS011;35061;47.664;9.166;2024-01-15T03:10:17;7.03;;;4.25;;
18754;SDS011;35061;47.664;9.166;2024-01-15T03:12:45;5.15;;;4.00;;
18754;SDS011;35061;47.664;9.166;2024-01-15T03:15:13;7.97;;;5.10;;
18754;SDS011;35061;47.664;9.166;2024-01-15T03:17:41;5.53;;;3.58;;
18754;SDS011;35061;47.664;9.166;2024-01-15T03:20:12;6.05;;;3.72;;
18754;SDS011;35061;47.664;9.166;2024-01-15T03:22:40;6.93;;;3.97;;
18754;SDS011;35061;47.664;9.166;2024-01-15T03:25:08;6.65;;;3.70;;
18754;SDS011;35061;47.664;9.166;2024-01-15T03:27:36;4.80;;;3.58;;
18754;SDS011;35061;47.664;9.166;2024-01-15T03:30:04;7.50;;;4.00;;
18754;SDS011;35061;47.664;9.166;2024-01-15T03:32:33;7.35;;;4.10;;
18754;SDS011;35061;47.664;9.166;2024-01-15T03:35:01;8.52;;;4.78;;
18754;SDS011;35061;47.664;9.166;2024-01-15T03:37:29;7.22;;;4.22;;
18754;SDS011;35061;47.664;9.166;2024-01-15T03:39:57;6.22;;;3.97;;
18754;SDS011;35061;47.664;9.166;2024-01-15T03:42:25;8.70;;;4.87;;
18754;SDS011;35061;47.664;9.166;2024-01-15T03:44:53;6.80;;;4.07;;
18754;SDS011;35061;47.664;9.166;2024-01-15T03:47:21;8.43;;;4.62;;
18754;SDS011;35061;47.664;9.166;2024-01-15T03:49:49;8.70;;;4.78;;
18754;SDS011;35061;47.664;9.166;2024-01-15T03:52:17;7.65;;;4.80;;
18754;SDS011;35061;47.664;9.166;2024-01-15T03:54:45;6.15;;;3.78;;
18754;SDS011;35061;47.664;9.166;2024-01-15T03:57:13;7.53;;;4.55;;
18754;SDS011;35061;47.664;9.166;2024-01-15T03:59:41;7.37;;;4.30;;
18754;SDS011;35061;47.664;9.166;2024-01-15T04:02:09;7.25;;;3.83;;
18754;SDS011;35061;47.664;9.166;2024-01-15T04:04:40;8.77;;;4.45;;
18754;SDS011;35061;47.664;9.166;2024-01-15T04:07:10;10.52;;;5.43;;
18754;SDS011;35061;47.664;9.166;2024-01-15T04:09:38;8.50;;;5.15;;
18754;SDS011;35061;47.664;9.166;2024-01-15T04:12:06;10.32;;;5.30;;
18754;SDS011;35061;47.664;9.166;2024-01-15T04:14:34;10.73;;;5.15;;
18754;SDS011;35061;47.664;9.166;2024-01-15T04:17:03;9.98;;;5.50;;
18754;SDS011;35061;47.664;9.166;2024-01-15T04:19:31;9.80;;;4.95;;
18754;SDS011;35061;47.664;9.166;2024-01-15T04:21:59;9.05;;;5.50;;
18754;SDS011;35061;47.664;9.166;2024-01-15T04:24:27;8.90;;;5.90;;
18754;SDS011;35061;47.664;9.166;2024-01-15T04:26:55;7.45;;;4.25;;
18754;SDS011;35061;47.664;9.166;2024-01-15T04:29:23;7.03;;;4.85;;
18754;SDS011;35061;47.664;9.166;2024-01-15T04:31:51;8.40;;;4.45;;
18754;SDS011;35061;47.664;9.166;2024-01-15T04:34:20;12.10;;;5.82;;
18754;SDS011;35061;47.664;9.166;2024-01-15T04:36:48;10.00;;;5.80;;
18754;SDS011;35061;47.664;9.166;2024-01-15T04:39:16;8.88;;;5.20;;
18754;SDS011;35061;47.664;9.166;2024-01-15T04:41:45;9.80;;;5.57;;
18754;SDS011;35061;47.664;9.166;2024-01-15T04:44:13;12.50;;;6.40;;
18754;SDS011;35061;47.664;9.166;2024-01-15T04:46:41;12.52;;;6.25;;
18754;SDS011;35061;47.664;9.166;2024-01-15T04:49:11;15.00;;;7.53;;
18754;SDS011;35061;47.664;9.166;2024-01-15T04:51:39;13.55;;;7.12;;
18754;SDS011;35061;47.664;9.166;2024-01-15T04:54:07;11.70;;;5.93;;
18754;SDS011;35061;47.664;9.166;2024-01-15T04:56:35;8.93;;;5.10;;
18754;SDS011;35061;47.664;9.166;2024-01-15T04:59:03;13.35;;;6.82;;
18754;SDS011;35061;47.664;9.166;2024-01-15T05:01:31;14.55;;;6.70;;
18754;SDS011;35061;47.664;9.166;2024-01-15T05:04:00;9.60;;;5.82;;
18754;SDS011;35061;47.664;9.166;2024-01-15T05:06:28;9.32;;;5.72;;
18754;SDS011;35061;47.664;9.166;2024-01-15T05:08:56;8.43;;;5.28;;
18754;SDS011;35061;47.664;9.166;2024-01-15T05:11:24;11.88;;;6.53;;
18754;SDS011;35061;47.664;9.166;2024-01-15T05:13:52;8.60;;;5.43;;
18754;SDS011;35061;47.664;9.166;2024-01-15T05:16:21;8.75;;;5.07;;
18754;SDS011;35061;47.664;9.166;2024-01-15T05:18:49;13.98;;;5.50;;
18754;SDS011;35061;47.664;9.166;2024-01-15T05:21:17;10.13;;;5.22;;
18754;SDS011;35061;47.664;9.166;2024-01-15T05:23:45;13.05;;;5.80;;
18754;SDS011;35061;47.664;9.166;2024-01-15T05:26:13;9.45;;;4.80;;
18754;SDS011;35061;47.664;9.166;2024-01-15T05:28:42;12.93;;;5.62;;
18754;SDS011;35061;47.664;9.166;2024-01-15T05:31:11;11.25;;;5.15;;
18754;SDS011;35061;47.664;9.166;2024-01-15T05:33:39;10.65;;;5.10;;
18754;SDS011;35061;47.664;9.166;2024-01-15T05:36:08;10.95;;;5.60;;
18754;SDS011;35061;47.664;9.166;2024-01-15T05:38:36;11.85;;;5.75;;
18754;SDS011;35061;47.664;9.166;2024-01-15T05:41:04;10.52;;;5.65;;
18754;SDS011;35061;47.664;9.166;2024-01-15T05:43:33;10.85;;;5.90;;
18754;SDS011;35061;47.664;9.166;2024-01-15T05:46:01;10.98;;;5.85;;
18754;SDS011;35061;47.664;9.166;2024-01-15T05:48:29;10.48;;;5.12;;
18754;SDS011;35061;47.664;9.166;2024-01-15T05:50:57;11.27;;;5.15;;
18754;SDS011;35061;47.664;9.166;2024-01-15T05:53:25;13.02;;;6.57;;
18754;SDS011;35061;47.664;9.166;2024-01-15T05:55:53;9.40;;;4.82;;
18754;SDS011;35061;47.664;9.166;2024-01-15T05:58:23;10.45;;;5.32;;
18754;SDS011;35061;47.664;9.166;2024-01-15T06:00:51;10.85;;;5.90;;
18754;SDS011;35061;47.664;9.166;2024-01-15T06:03:19;9.48;;;5.40;;
18754;SDS011;35061;47.664;9.166;2024-01-15T06:05:47;12.00;;;6.40;;
18754;SDS011;35061;47.664;9.166;2024-01-15T06:08:15;9.45;;;5.60;;
18754;SDS011;35061;47.664;9.166;2024-01-15T06:10:43;10.50;;;6.40;;
18754;SDS011;35061;47.664;9.166;2024-01-15T06:13:11;13.80;;;6.37;;
18754;SDS011;35061;47.664;9.166;2024-01-15T06:15:39;10.43;;;5.53;;
18754;SDS011;35061;47.664;9.166;2024-01-15T06:18:10;9.38;;;5.00;;
18754;SDS011;35061;47.664;9.166;2024-01-15T06:20:38;12.75;;;5.95;;
18754;SDS011;35061;47.664;9.166;2024-01-15T06:23:09;9.27;;;5.57;;
18754;SDS011;35061;47.664;9.166;2024-01-15T06:25:37;10.48;;;5.12;;
18754;SDS011;35061;47.664;9.166;2024-01-15T06:28:05;10.60;;;5.28;;
18754;SDS011;35061;47.664;9.166;2024-01-15T06:30:33;11.50;;;5.60;;
18754;SDS011;35061;47.664;9.166;2024-01-15T06:33:01;11.40;;;5.87;;
18754;SDS011;35061;47.664;9.166;2024-01-15T06:35:29;12.50;;;6.30;;
18754;SDS011;35061;47.664;9.166;2024-01-15T06:37:57;8.50;;;5.25;;
18754;SDS011;35061;47.664;9.166;2024-01-15T06:40:25;11.38;;;5.72;;
18754;SDS011;35061;47.664;9.166;2024-01-15T06:42:53;9.30;;;4.78;;
18754;SDS011;35061;47.664;9.166;2024-01-15T06:45:21;11.85;;;6.05;;
18754;SDS011;35061;47.664;9.166;2024-01-15T06:47:52;8.80;;;5.03;;
18754;SDS011;35061;47.664;9.166;2024-01-15T06:50:20;10.40;;;5.28;;
18754;SDS011;35061;47.664;9.166;2024-01-15T06:52:48;8.57;;;4.40;;
18754;SDS011;35061;47.664;9.166;2024-01-15T06:55:18;12.50;;;6.00;;
18754;SDS011;35061;47.664;9.166;2024-01-15T06:57:45;11.07;;;5.85;;
18754;SDS011;35061;47.664;9.166;2024-01-15T07:00:14;9.63;;;5.15;;
18754;SDS011;35061;47.664;9.166;2024-01-15T07:02:42;12.18;;;5.85;;
18754;SDS011;35061;47.664;9.166;2024-01-15T07:05:10;9.93;;;5.00;;
18754;SDS011;35061;47.664;9.166;2024-01-15T07:07:38;11.98;;;5.05;;
18754;SDS011;35061;47.664;9.166;2024-01-15T07:10:06;9.15;;;4.95;;
18754;SDS011;35061;47.664;9.166;2024-01-15T07:12:35;13.20;;;5.53;;
18754;SDS011;35061;47.664;9.166;2024-01-15T07:15:03;10.50;;;5.57;;
18754;SDS011;35061;47.664;9.166;2024-01-15T07:17:34;10.23;;;5.47;;
18754;SDS011;35061;47.664;9.166;2024-01-15T07:20:02;7.18;;;5.03;;
18754;SDS011;35061;47.664;9.166;2024-01-15T07:22:31;11.88;;;6.22;;
18754;SDS011;35061;47.664;9.166;2024-01-15T07:24:59;9.52;;;5.28;;
18754;SDS011;35061;47.664;9.166;2024-01-15T07:27:27;7.68;;;4.93;;
18754;SDS011;35061;47.664;9.166;2024-01-15T07:29:55;10.45;;;6.00;;
18754;SDS011;35061;47.664;9.166;2024-01-15T07:32:27;11.77;;;5.82;;
18754;SDS011;35061;47.664;9.166;2024-01-15T07:34:55;10.30;;;5.45;;
18754;SDS011;35061;47.664;9.166;2024-01-15T07:37:24;10.68;;;5.12;;
18754;SDS011;35061;47.664;9.166;2024-01-15T07:39:52;8.10;;;5.22;;
18754;SDS011;35061;47.664;9.166;2024-01-15T07:42:20;9.73;;;4.80;;
18754;SDS011;35061;47.664;9.166;2024-01-15T07:44:48;9.95;;;5.40;;
18754;SDS011;35061;47.664;9.166;2024-01-15T07:47:16;11.00;;;5.85;;
18754;SDS011;35061;47.664;9.166;2024-01-15T07:49:44;10.38;;;5.57;;
18754;SDS011;35061;47.664;9.166;2024-01-15T07:52:12;10.52;;;5.07;;
18754;SDS011;35061;47.664;9.166;2024-01-15T07:54:41;10.02;;;6.00;;
18754;SDS011;35061;47.664;9.166;2024-01-15T07:57:09;9.75;;;5.20;;
18754;SDS011;35061;47.664;9.166;2024-01-15T07:59:38;10.95;;;5.05;;
18754;SDS011;35061;47.664;9.166;2024-01-15T08:02:06;10.43;;;5.28;;
18754;SDS011;35061;47.664;9.166;2024-01-15T08:04:34;13.55;;;6.62;;
18754;SDS011;35061;47.664;9.166;2024-01-15T08:07:02;12.32;;;5.57;;
18754;SDS011;35061;47.664;9.166;2024-01-15T08:09:30;13.05;;;6.75;;
18754;SDS011;35061;47.664;9.166;2024-01-15T08:11:58;9.30;;;5.07;;
18754;SDS011;35061;47.664;9.166;2024-01-15T08:14:27;13.10;;;6.07;;
18754;SDS011;35061;47.664;9.166;2024-01-15T08:16:55;11.73;;;6.28;;
18754;SDS011;35061;47.664;9.166;2024-01-15T08:19:23;10.77;;;6.37;;
18754;SDS011;35061;47.664;9.166;2024-01-15T08:21:51;10.60;;;6.37;;
18754;SDS011;35061;47.664;9.166;2024-01-15T08:24:19;11.80;;;6.10;;
18754;SDS011;35061;47.664;9.166;2024-01-15T08:26:47;14.95;;;6.15;;
18754;SDS011;35061;47.664;9.166;2024-01-15T08:29:16;13.05;;;7.12;;
18754;SDS011;35061;47.664;9.166;2024-01-15T08:31:44;10.65;;;6.95;;
18754;SDS011;35061;47.664;9.166;2024-01-15T08:34:12;12.37;;;6.90;;
18754;SDS011;35061;47.664;9.166;2024-01-15T08:36:40;12.07;;;6.57;;
18754;SDS011;35061;47.664;9.166;2024-01-15T08:39:08;12.25;;;6.18;;
18754;SDS011;35061;47.664;9.166;2024-01-15T08:41:36;13.10;;;6.80;;
18754;SDS011;35061;47.664;9.166;2024-01-15T08:44:04;11.95;;;6.55;;
18754;SDS011;35061;47.664;9.166;2024-01-15T08:46:32;12.77;;;5.85;;
18754;SDS011;35061;47.664;9.166;2024-01-15T08:49:00;14.63;;;6.93;;
18754;SDS011;35061;47.664;9.166;2024-01-15T08:51:28;12.43;;;6.43;;
18754;SDS011;35061;47.664;9.166;2024-01-15T08:53:57;12.50;;;6.12;;
18754;SDS011;35061;47.664;9.166;2024-01-15T08:56:25;13.48;;;7.18;;
18754;SDS011;35061;47.664;9.166;2024-01-15T08:58:54;9.88;;;6.15;;
18754;SDS011;35061;47.664;9.166;2024-01-15T09:01:23;10.13;;;5.85;;
18754;SDS011;35061;47.664;9.166;2024-01-15T09:03:51;13.70;;;6.50;;
18754;SDS011;35061;47.664;9.166;2024-01-15T09:06:19;13.75;;;7.40;;
18754;SDS011;35061;47.664;9.166;2024-01-15T09:08:48;13.38;;;6.72;;
18754;SDS011;35061;47.664;9.166;2024-01-15T09:11:17;15.80;;;7.87;;
18754;SDS011;35061;47.664;9.166;2024-01-15T09:13:45;10.43;;;6.85;;
18754;SDS011;35061;47.664;9.166;2024-01-15T09:16:13;10.65;;;6.03;;
18754;SDS011;35061;47.664;9.166;2024-01-15T09:18:41;14.10;;;7.15;;
18754;SDS011;35061;47.664;9.166;2024-01-15T09:21:09;7.57;;;5.07;;
18754;SDS011;35061;47.664;9.166;2024-01-15T09:23:37;11.82;;;6.03;;
18754;SDS011;35061;47.664;9.166;2024-01-15T09:26:07;8.82;;;5.45;;
18754;SDS011;35061;47.664;9.166;2024-01-15T09:28:36;9.68;;;5.93;;
18754;SDS011;35061;47.664;9.166;2024-01-15T09:31:04;12.25;;;6.45;;
18754;SDS011;35061;47.664;9.166;2024-01-15T09:33:32;11.57;;;5.80;;
18754;SDS011;35061;47.664;9.166;2024-01-15T09:36:03;12.02;;;7.40;;
18754;SDS011;35061;47.664;9.166;2024-01-15T09:38:32;11.93;;;6.30;;
18754;SDS011;35061;47.664;9.166;2024-01-15T09:41:00;11.70;;;6.30;;
18754;SDS011;35061;47.664;9.166;2024-01-15T09:43:28;10.75;;;6.68;;
18754;SDS011;35061;47.664;9.166;2024-01-15T09:45:56;9.93;;;5.72;;
18754;SDS011;35061;47.664;9.166;2024-01-15T09:48:25;10.30;;;5.45;;
18754;SDS011;35061;47.664;9.166;2024-01-15T09:50:53;11.18;;;5.55;;
18754;SDS011;35061;47.664;9.166;2024-01-15T09:53:21;11.77;;;6.75;;
18754;SDS011;35061;47.664;9.166;2024-01-15T09:55:50;13.90;;;6.50;;
18754;SDS011;35061;47.664;9.166;2024-01-15T09:58:20;12.68;;;6.18;;
18754;SDS011;35061;47.664;9.166;2024-01-15T10:00:48;10.23;;;5.40;;
18754;SDS011;35061;47.664;9.166;2024-01-15T10:03:18;9.88;;;6.43;;
18754;SDS011;35061;47.664;9.166;2024-01-15T10:05:46;10.00;;;5.45;;
18754;SDS011;35061;47.664;9.166;2024-01-15T10:08:14;9.25;;;4.78;;
18754;SDS011;35061;47.664;9.166;2024-01-15T10:10:42;10.93;;;5.45;;
18754;SDS011;35061;47.664;9.166;2024-01-15T10:13:10;13.05;;;5.60;;
18754;SDS011;35061;47.664;9.166;2024-01-15T10:15:39;11.02;;;5.30;;
18754;SDS011;35061;47.664;9.166;2024-01-15T10:18:07;10.45;;;5.53;;
18754;SDS011;35061;47.664;9.166;2024-01-15T10:20:35;9.45;;;5.37;;
18754;SDS011;35061;47.664;9.166;2024-01-15T10:23:03;11.18;;;5.62;;
18754;SDS011;35061;47.664;9.166;2024-01-15T10:25:32;10.30;;;4.40;;
18754;SDS011;35061;47.664;9.166;2024-01-15T10:28:03;10.70;;;4.97;;
18754;SDS011;35061;47.664;9.166;2024-01-15T10:30:32;9.57;;;5.20;;
18754;SDS011;35061;47.664;9.166;2024-01-15T10:33:01;10.80;;;6.80;;
18754;SDS011;35061;47.664;9.166;2024-01-15T10:35:31;10.77;;;6.30;;
18754;SDS011;35061;47.664;9.166;2024-01-15T10:38:01;8.57;;;4.65;;
18754;SDS011;35061;47.664;9.166;2024-01-15T10:40:31;7.90;;;4.60;;
18754;SDS011;35061;47.664;9.166;2024-01-15T10:42:59;6.05;;;3.92;;
18754;SDS011;35061;47.664;9.166;2024-01-15T10:45:27;7.75;;;4.68;;
18754;SDS011;35061;47.664;9.166;2024-01-15T10:47:55;7.35;;;3.80;;
18754;SDS011;35061;47.664;9.166;2024-01-15T10:50:26;10.10;;;6.45;;
18754;SDS011;35061;47.664;9.166;2024-01-15T10:52:54;9.82;;;5.25;;
18754;SDS011;35061;47.664;9.166;2024-01-15T10:55:24;7.00;;;4.28;;
18754;SDS011;35061;47.664;9.166;2024-01-15T10:57:54;7.62;;;4.53;;
18754;SDS011;35061;47.664;9.166;2024-01-15T11:00:24;6.43;;;4.00;;
18754;SDS011;35061;47.664;9.166;2024-01-15T11:02:52;6.68;;;4.22;;
18754;SDS011;35061;47.664;9.166;2024-01-15T11:05:23;7.07;;;4.10;;
18754;SDS011;35061;47.664;9.166;2024-01-15T11:07:55;6.72;;;4.00;;
18754;SDS011;35061;47.664;9.166;2024-01-15T11:16:03;6.12;;;4.10;;
18754;SDS011;35061;47.664;9.166;2024-01-15T11:18:37;6.72;;;4.43;;
18754;SDS011;35061;47.664;9.166;2024-01-15T11:27:02;7.18;;;4.03;;
18754;SDS011;35061;47.664;9.166;2024-01-15T11:29:29;5.70;;;3.55;;
18754;SDS011;35061;47.664;9.166;2024-01-15T11:32:10;7.28;;;4.30;;
18754;SDS011;35061;47.664;9.166;2024-01-15T11:34:54;9.50;;;4.25;;
18754;SDS011;35061;47.664;9.166;2024-01-15T11:37:29;7.60;;;4.30;;
18754;SDS011;35061;47.664;9.166;2024-01-15T11:40:17;9.18;;;4.10;;
18754;SDS011;35061;47.664;9.166;2024-01-15T11:42:46;8.00;;;3.17;;
18754;SDS011;35061;47.664;9.166;2024-01-15T11:45:18;7.07;;;3.90;;
18754;SDS011;35061;47.664;9.166;2024-01-15T11:50:24;6.47;;;3.92;;
18754;SDS011;35061;47.664;9.166;2024-01-15T11:53:02;7.20;;;3.17;;
18754;SDS011;35061;47.664;9.166;2024-01-15T11:55:38;6.90;;;3.72;;
18754;SDS011;35061;47.664;9.166;2024-01-15T11:58:08;7.32;;;3.65;;
18754;SDS011;35061;47.664;9.166;2024-01-15T12:00:43;4.82;;;3.05;;
18754;SDS011;35061;47.664;9.166;2024-01-15T12:03:13;5.40;;;3.47;;
18754;SDS011;35061;47.664;9.166;2024-01-15T12:05:42;7.87;;;3.60;;
18754;SDS011;35061;47.664;9.166;2024-01-15T12:08:10;7.60;;;3.33;;
18754;SDS011;35061;47.664;9.166;2024-01-15T12:10:39;4.78;;;2.83;;
18754;SDS011;35061;47.664;9.166;2024-01-15T12:13:12;5.45;;;3.62;;
18754;SDS011;35061;47.664;9.166;2024-01-15T12:15:41;6.20;;;3.90;;
18754;SDS011;35061;47.664;9.166;2024-01-15T12:18:17;6.55;;;3.72;;
18754;SDS011;35061;47.664;9.166;2024-01-15T12:20:47;4.22;;;2.97;;
18754;SDS011;35061;47.664;9.166;2024-01-15T12:23:15;5.43;;;3.15;;
18754;SDS011;35061;47.664;9.166;2024-01-15T12:25:44;7.40;;;3.60;;
18754;SDS011;35061;47.664;9.166;2024-01-15T12:28:13;6.40;;;3.25;;
18754;SDS011;35061;47.664;9.166;2024-01-15T12:30:42;5.55;;;3.40;;
18754;SDS011;35061;47.664;9.166;2024-01-15T12:33:17;5.07;;;2.87;;
18754;SDS011;35061;47.664;9.166;2024-01-15T12:35:47;4.70;;;2.62;;
18754;SDS011;35061;47.664;9.166;2024-01-15T12:38:18;6.15;;;3.55;;
18754;SDS011;35061;47.664;9.166;2024-01-15T12:40:47;5.45;;;2.87;;
18754;SDS011;35061;47.664;9.166;2024-01-15T12:43:17;6.25;;;3.40;;
18754;SDS011;35061;47.664;9.166;2024-01-15T12:45:45;5.60;;;3.50;;
18754;SDS011;35061;47.664;9.166;2024-01-15T12:48:14;7.97;;;3.50;;
18754;SDS011;35061;47.664;9.166;2024-01-15T12:50:45;3.83;;;3.03;;
18754;SDS011;35061;47.664;9.166;2024-01-15T12:53:15;5.85;;;3.12;;
18754;SDS011;35061;47.664;9.166;2024-01-15T12:55:43;5.87;;;3.87;;
18754;SDS011;35061;47.664;9.166;2024-01-15T12:58:12;7.72;;;4.07;;
18754;SDS011;35061;47.664;9.166;2024-01-15T13:00:45;21.85;;;7.87;;
18754;SDS011;35061;47.664;9.166;2024-01-15T13:03:14;12.63;;;7.10;;
18754;SDS011;35061;47.664;9.166;2024-01-15T13:05:42;7.05;;;3.90;;
18754;SDS011;35061;47.664;9.166;2024-01-15T13:08:10;7.00;;;4.05;;
18754;SDS011;35061;47.664;9.166;2024-01-15T13:10:38;4.47;;;3.45;;
18754;SDS011;35061;47.664;9.166;2024-01-15T13:13:06;5.53;;;3.53;;
18754;SDS011;35061;47.664;9.166;2024-01-15T13:15:34;6.62;;;3.03;;
18754;SDS011;35061;47.664;9.166;2024-01-15T13:18:03;5.15;;;3.28;;
18754;SDS011;35061;47.664;9.166;2024-01-15T13:20:31;3.65;;;2.72;;
18754;SDS011;35061;47.664;9.166;2024-01-15T13:22:59;5.68;;;3.28;;
18754;SDS011;35061;47.664;9.166;2024-01-15T13:25:28;4.18;;;2.75;;
18754;SDS011;35061;47.664;9.166;2024-01-15T13:27:56;8.07;;;3.58;;
18754;SDS011;35061;47.664;9.166;2024-01-15T13:30:24;5.37;;;3.35;;
18754;SDS011;35061;47.664;9.166;2024-01-15T13:32:52;5.82;;;3.40;;
18754;SDS011;35061;47.664;9.166;2024-01-15T13:35:21;3.62;;;2.87;;
18754;SDS011;35061;47.664;9.166;2024-01-15T13:37:49;5.10;;;2.58;;
18754;SDS011;35061;47.664;9.166;2024-01-15T13:40:18;5.57;;;3.15;;
18754;SDS011;35061;47.664;9.166;2024-01-15T13:42:47;5.85;;;3.78;;
18754;SDS011;35061;47.664;9.166;2024-01-15T13:45:16;4.85;;;3.08;;
18754;SDS011;35061;47.664;9.166;2024-01-15T13:47:44;4.50;;;3.28;;
18754;SDS011;35061;47.664;9.166;2024-01-15T13:50:13;4.62;;;2.90;;
18754;SDS011;35061;47.664;9.166;2024-01-15T13:52:41;4.82;;;2.75;;
18754;SDS011;35061;47.664;9.166;2024-01-15T13:55:09;3.40;;;2.47;;
18754;SDS011;35061;47.664;9.166;2024-01-15T13:57:37;4.45;;;2.70;;
18754;SDS011;35061;47.664;9.166;2024-01-15T14:00:05;4.22;;;2.67;;
18754;SDS011;35061;47.664;9.166;2024-01-15T14:02:39;4.90;;;2.75;;
18754;SDS011;35061;47.664;9.166;2024-01-15T14:05:07;4.87;;;3.25;;
18754;SDS011;35061;47.664;9.166;2024-01-15T14:07:36;4.20;;;2.78;;
18754;SDS011;35061;47.664;9.166;2024-01-15T14:10:04;5.30;;;3.05;;
18754;SDS011;35061;47.664;9.166;2024-01-15T14:12:32;4.07;;;2.83;;
18754;SDS011;35061;47.664;9.166;2024-01-15T14:15:02;4.93;;;3.30;;
18754;SDS011;35061;47.664;9.166;2024-01-15T14:17:31;3.60;;;2.62;;
18754;SDS011;35061;47.664;9.166;2024-01-15T14:19:59;4.80;;;3.58;;
18754;SDS011;35061;47.664;9.166;2024-01-15T14:22:27;5.20;;;2.87;;
18754;SDS011;35061;47.664;9.166;2024-01-15T14:24:55;3.95;;;3.00;;
18754;SDS011;35061;47.664;9.166;2024-01-15T14:27:23;5.40;;;3.50;;
18754;SDS011;35061;47.664;9.166;2024-01-15T14:29:51;4.68;;;3.22;;
18754;SDS011;35061;47.664;9.166;2024-01-15T14:32:19;5.10;;;3.53;;
18754;SDS011;35061;47.664;9.166;2024-01-15T14:34:47;7.47;;;3.87;;
18754;SDS011;35061;47.664;9.166;2024-01-15T14:37:17;4.72;;;3.58;;
18754;SDS011;35061;47.664;9.166;2024-01-15T14:39:45;7.40;;;4.32;;
18754;SDS011;35061;47.664;9.166;2024-01-15T14:42:13;8.15;;;5.32;;
18754;SDS011;35061;47.664;9.166;2024-01-15T14:44:41;8.70;;;5.37;;
18754;SDS011;35061;47.664;9.166;2024-01-15T14:47:09;8.55;;;5.55;;
18754;SDS011;35061;47.664;9.166;2024-01-15T14:49:37;10.15;;;5.97;;
18754;SDS011;35061;47.664;9.166;2024-01-15T14:52:05;10.18;;;6.57;;
18754;SDS011;35061;47.664;9.166;2024-01-15T14:54:34;12.40;;;6.97;;
18754;SDS011;35061;47.664;9.166;2024-01-15T14:57:02;13.65;;;7.32;;
18754;SDS011;35061;47.664;9.166;2024-01-15T14:59:30;12.57;;;6.70;;
18754;SDS011;35061;47.664;9.166;2024-01-15T15:01:58;10.80;;;7.18;;
18754;SDS011;35061;47.664;9.166;2024-01-15T15:04:26;11.18;;;7.10;;
18754;SDS011;35061;47.664;9.166;2024-01-15T15:06:56;12.48;;;6.68;;